^^
Station Historical Data
 
Daily Summary for November 13, 2019 Units:  English    Metric   Both
« Previous Day
Next Day »
Daily Weekly Monthly Yearly Custom
  Current: High: Low: Average:
Temperature: 20.5 °F 30.2 °F 20.1 °F 27.3 °F
Dew Point: 14.1 °F 27.3 °F 13.5 °F 21 °F
Humidity: 76% 90% 61% 77%
Wind Speed: 3mph 23mph 0mph 8.6mph
Wind Gust: 8mph 24mph - -
WindNW - - NW
Pressure: 30.29 in 30.29 in 29.98 in -
Precipitation: 0.01 in      
Historical Graphs
 
 
Tabular Data for November 13, 2019
Time Temperature Dew Point Pressure Wind Wind Speed Wind Gust Humidity Rainfall Rate (Hourly) solar Conditions
00:00 24.5 °F 20.6 °F 29.98 in Calm     85% 0 in 0.00 W/m2
00:05 24.5 °F 20.6 °F 29.98 in Calm     85% 0 in 0.00 W/m2
00:10 24.5 °F 20.6 °F 29.98 in SSE 1 mph 2 mph 85% 0 in 0.00 W/m2
00:15 24.4 °F 20.3 °F 29.98 in Calm   2 mph 84% 0 in 0.00 W/m2
00:20 24.5 °F 20.6 °F 29.98 in Calm   2 mph 85% 0 in 0.00 W/m2
00:25 24.5 °F 20.4 °F 29.98 in Calm   1 mph 84% 0 in 0.00 W/m2
00:30 24.6 °F 20.7 °F 29.98 in Calm   1 mph 85% 0 in 0.00 W/m2
00:35 24.6 °F 20.7 °F 29.98 in SSE 1 mph 4 mph 85% 0 in 0.00 W/m2
00:40 24.7 °F 20.6 °F 29.98 in WSW 3 mph 4 mph 84% 0 in 0.00 W/m2
00:45 25 °F 20.8 °F 29.98 in WNW 4 mph 4 mph 84% 0 in 0.00 W/m2
00:50 25.5 °F 21.1 °F 29.98 in WNW 4 mph 5 mph 83% 0 in 0.00 W/m2
00:55 25.5 °F 20.8 °F 29.98 in WNW 4 mph 5 mph 82% 0 in 0.00 W/m2
01:00 25.3 °F 20.9 °F 29.98 in WNW 3 mph 5 mph 83% 0 in 0.00 W/m2
01:05 25.2 °F 20.8 °F 29.98 in WNW 3 mph 4 mph 83% 0 in 0.00 W/m2
01:10 25.1 °F 20.7 °F 29.98 in WNW 3 mph 4 mph 83% 0 in 0.00 W/m2
01:15 25 °F 20.6 °F 29.98 in WNW 2 mph 4 mph 83% 0 in 0.00 W/m2
01:20 25 °F 20.6 °F 29.98 in WNW 1 mph 4 mph 83% 0 in 0.00 W/m2
01:25 25 °F 20.6 °F 29.98 in WNW 3 mph 4 mph 83% 0 in 0.00 W/m2
01:30 25.2 °F 21 °F 29.99 in WNW 4 mph 4 mph 84% 0 in 0.00 W/m2
01:35 25.4 °F 21.2 °F 29.99 in WNW 3 mph 4 mph 84% 0 in 0.00 W/m2
01:40 25.6 °F 21.2 °F 29.99 in WNW 2 mph 4 mph 83% 0 in 0.00 W/m2
01:45 25.7 °F 21.3 °F 29.99 in WNW 3 mph 7 mph 83% 0 in 0.00 W/m2
01:50 26 °F 21.5 °F 29.99 in WNW 3 mph 7 mph 83% 0 in 0.00 W/m2
01:55 26.2 °F 21.7 °F 29.99 in NW 4 mph 7 mph 83% 0 in 0.00 W/m2
02:00 26.2 °F 21.7 °F 29.99 in NW 3 mph 7 mph 83% 0 in 0.00 W/m2
02:05 26.6 °F 22.1 °F 29.99 in NW 3 mph 5 mph 83% 0 in 0.00 W/m2
02:10 26.7 °F 22.2 °F 29.99 in WNW 4 mph 5 mph 83% 0 in 0.00 W/m2
02:15 27 °F 22.2 °F 29.99 in WNW 2 mph 5 mph 82% 0 in 0.00 W/m2
02:20 26.9 °F 22.1 °F 29.99 in WNW 3 mph 5 mph 82% 0 in 0.00 W/m2
02:25 26.9 °F 22.1 °F 29.99 in WNW 3 mph 5 mph 82% 0 in 0.00 W/m2
02:30 27.2 °F 22.7 °F 29.99 in WNW 7 mph 10 mph 83% 0 in 0.00 W/m2
02:35 28.1 °F 23.3 °F 30.00 in NW 5 mph 10 mph 82% 0 in 0.00 W/m2
02:40 28.3 °F 23.2 °F 30.00 in NW 4 mph 10 mph 81% 0 in 0.00 W/m2
02:45 28.4 °F 23.3 °F 30.00 in NW 4 mph 10 mph 81% 0 in 0.00 W/m2
02:50 28.3 °F 23.2 °F 30.00 in NW 5 mph 8 mph 81% 0 in 0.00 W/m2
02:55 28.3 °F 23.2 °F 30.00 in NW 5 mph 8 mph 81% 0 in 0.00 W/m2
03:00 28.2 °F 23.1 °F 30.01 in NW 5 mph 8 mph 81% 0 in 0.00 W/m2
03:05 28.2 °F 23.1 °F 30.01 in NW 5 mph 8 mph 81% 0 in 0.00 W/m2
03:10 28.3 °F 23.2 °F 30.01 in NW 5 mph 8 mph 81% 0 in 0.00 W/m2
03:15 28.4 °F 23.3 °F 30.01 in NW 5 mph 8 mph 81% 0 in 0.00 W/m2
03:20 28.6 °F 23.5 °F 30.02 in NW 7 mph 8 mph 81% 0 in 0.00 W/m2
03:25 28.8 °F 23.7 °F 30.01 in NW 6 mph 8 mph 81% 0 in 0.00 W/m2
03:30 28.9 °F 23.8 °F 30.02 in NW 5 mph 11 mph 81% 0 in 0.00 W/m2
03:35 29 °F 23.9 °F 30.02 in NW 5 mph 11 mph 81% 0 in 0.00 W/m2
03:40 29.1 °F 24 °F 30.02 in NW 4 mph 10 mph 81% 0 in 0.00 W/m2
03:45 29.3 °F 24.2 °F 30.02 in NW 8 mph 10 mph 81% 0 in 0.00 W/m2
03:50 29.4 °F 24.3 °F 30.02 in NW 5 mph 10 mph 81% 0 in 0.00 W/m2
03:55 29.5 °F 24.4 °F 30.02 in NW 5 mph 10 mph 81% 0 in 0.00 W/m2
04:00 29.4 °F 24.3 °F 30.02 in NW 5 mph 9 mph 81% 0 in 0.00 W/m2
04:05 29.4 °F 24.6 °F 30.02 in NNW 4 mph 9 mph 82% 0 in 0.00 W/m2
04:10 29.3 °F 24.5 °F 30.02 in NW 4 mph 9 mph 82% 0 in 0.00 W/m2
04:15 29.5 °F 24.7 °F 30.02 in NW 3 mph 9 mph 82% 0 in 0.00 W/m2
04:20 29.6 °F 24.8 °F 30.02 in NW 3 mph 8 mph 82% 0 in 0.00 W/m2
04:25 29.8 °F 25 °F 30.02 in NW 9 mph 9 mph 82% 0 in 0.00 W/m2
04:30 29.9 °F 25.4 °F 30.03 in NW 5 mph 10 mph 83% 0 in 0.00 W/m2
04:35 29.8 °F 25.8 °F 30.03 in North 10 mph 12 mph 85% 0 in 0.00 W/m2
04:40 29.8 °F 26.1 °F 30.03 in NW 9 mph 13 mph 86% 0 in 0.00 W/m2
04:45 29.7 °F 26.6 °F 30.04 in NW 5 mph 13 mph 88% 0 in 0.00 W/m2
04:50 29.5 °F 26.7 °F 30.04 in WNW 7 mph 13 mph 89% 0 in 0.00 W/m2
04:55 29.7 °F 27.1 °F 30.04 in NW 9 mph 12 mph 90% 0 in 0.00 W/m2
05:00 29.7 °F 27.1 °F 30.04 in NW 6 mph 12 mph 90% 0 in 0.00 W/m2
05:05 29.8 °F 27.2 °F 30.04 in WNW 12 mph 14 mph 90% 0 in 0.00 W/m2
05:10 29.7 °F 27.1 °F 30.04 in NW 9 mph 14 mph 90% 0 in 0.00 W/m2
05:15 29.7 °F 27.1 °F 30.05 in NW 6 mph 14 mph 90% 0 in 0.00 W/m2
05:20 29.8 °F 27.2 °F 30.05 in WNW 11 mph 14 mph 90% 0 in 0.00 W/m2
05:25 29.8 °F 27.2 °F 30.05 in NNW 10 mph 13 mph 90% 0 in 0.00 W/m2
05:30 29.8 °F 27.2 °F 30.05 in WNW 9 mph 13 mph 90% 0 in 0.00 W/m2
05:35 29.9 °F 27.3 °F 30.05 in NNW 11 mph 14 mph 90% 0 in 0.00 W/m2
05:40 30 °F 27.2 °F 30.05 in WNW 11 mph 15 mph 89% 0 in 0.00 W/m2
05:45 30.1 °F 27 °F 30.06 in NW 10 mph 16 mph 88% 0 in 0.00 W/m2
05:50 30.1 °F 27 °F 30.06 in NW 9 mph 16 mph 88% 0 in 0.00 W/m2
05:55 30.1 °F 27 °F 30.06 in NW 11 mph 16 mph 88% 0 in 0.00 W/m2
06:00 30.1 °F 27 °F 30.07 in NW 8 mph 16 mph 88% 0 in 0.00 W/m2
06:05 30.2 °F 27.1 °F 30.07 in NW 11 mph 14 mph 88% 0 in 0.00 W/m2
06:10 30.1 °F 27 °F 30.07 in WNW 12 mph 15 mph 88% 0 in 0.00 W/m2
06:15 30.1 °F 27.3 °F 30.07 in WNW 12 mph 15 mph 89% 0 in 0.00 W/m2
06:20 30.1 °F 27 °F 30.08 in WNW 12 mph 16 mph 88% 0 in 0.00 W/m2
06:25 30.1 °F 27 °F 30.08 in WNW 10 mph 16 mph 88% 0 in 0.00 W/m2
06:30 30 °F 26.9 °F 30.08 in NW 8 mph 16 mph 88% 0 in 0.00 W/m2
06:35 30 °F 26.9 °F 30.08 in WNW 8 mph 16 mph 88% 0 in 0.00 W/m2
06:40 29.9 °F 26.8 °F 30.08 in WNW 8 mph 16 mph 88% 0 in 0.00 W/m2
06:45 29.9 °F 26.8 °F 30.08 in NW 6 mph 12 mph 88% 0 in 0.00 W/m2
06:50 29.8 °F 26.7 °F 30.09 in NW 10 mph 12 mph 88% 0 in 0.00 W/m2
06:55 29.8 °F 26.4 °F 30.09 in NW 6 mph 12 mph 87% 0 in 0.00 W/m2
07:00 29.7 °F 26.3 °F 30.09 in NNW 10 mph 13 mph 87% 0 in 0.00 W/m2
07:05 29.6 °F 25.6 °F 30.09 in NW 9 mph 14 mph 85% 0 in 0.00 W/m2
07:10 29.5 °F 25.3 °F 30.09 in NNW 9 mph 14 mph 84% 0 in 0.00 W/m2
07:15 29.3 °F 25.1 °F 30.09 in NW 12 mph 16 mph 84% 0 in 0.00 W/m2
07:20 29.2 °F 24.7 °F 30.09 in NW 6 mph 16 mph 83% 0 in 0.00 W/m2
07:25 29.1 °F 24.6 °F 30.09 in NNW 9 mph 16 mph 83% 0 in 0.00 W/m2
07:30 28.9 °F 24.4 °F 30.10 in NW 13 mph 16 mph 83% 0 in 0.00 W/m2
07:35 28.8 °F 24.6 °F 30.10 in NW 11 mph 16 mph 84% 0 in 0.00 W/m2
07:40 28.7 °F 24.5 °F 30.10 in NW 9 mph 16 mph 84% 0 in 0.00 W/m2
07:45 28.6 °F 24.4 °F 30.10 in NW 10 mph 15 mph 84% 0 in 0.00 W/m2
07:50 28.6 °F 24.4 °F 30.11 in NNW 8 mph 14 mph 84% 0 in 5.00 W/m2
07:55 28.5 °F 24.6 °F 30.11 in NNW 6 mph 14 mph 85% 0 in 7.00 W/m2
08:00 28.4 °F 24.2 °F 30.11 in NNW 11 mph 11 mph 84% 0 in 7.00 W/m2
08:05 28.3 °F 24.1 °F 30.11 in NW 8 mph 16 mph 84% 0 in 9.00 W/m2
08:10 28.3 °F 24.1 °F 30.12 in NNW 10 mph 16 mph 84% 0 in 11.00 W/m2
08:15 28.2 °F 24 °F 30.12 in NNW 9 mph 15 mph 84% 0 in 12.00 W/m2
08:20 28.2 °F 24 °F 30.12 in NNW 8 mph 15 mph 84% 0 in 12.00 W/m2
08:25 28.1 °F 23.9 °F 30.13 in NNW 8 mph 12 mph 84% 0 in 14.00 W/m2
08:30 28.1 °F 23.9 °F 30.13 in NNW 8 mph 12 mph 84% 0 in 18.00 W/m2
08:35 28.1 °F 23.9 °F 30.13 in NW 8 mph 13 mph 84% 0 in 25.00 W/m2
08:40 27.9 °F 23.7 °F 30.14 in NNW 10 mph 13 mph 84% 0 in 32.00 W/m2
08:45 27.7 °F 23.2 °F 30.14 in NNW 11 mph 13 mph 83% 0 in 33.00 W/m2
08:50 27.3 °F 22.8 °F 30.14 in NW 7 mph 13 mph 83% 0 in 42.00 W/m2
08:55 27.1 °F 22.6 °F 30.14 in NNW 8 mph 11 mph 83% 0 in 90.00 W/m2
09:00 27.1 °F 22.6 °F 30.14 in NW 5 mph 10 mph 83% 0 in 88.00 W/m2
09:05 27.1 °F 22.6 °F 30.14 in NW 4 mph 10 mph 83% 0 in 98.00 W/m2
09:10 27 °F 22.5 °F 30.15 in NW 7 mph 10 mph 83% 0 in 130.00 W/m2
09:15 27.1 °F 22.6 °F 30.16 in NW 5 mph 9 mph 83% 0 in 149.00 W/m2
09:20 27.4 °F 22.9 °F 30.15 in NW 4 mph 9 mph 83% 0 in 192.00 W/m2
09:25 27.5 °F 23 °F 30.16 in NW 6 mph 9 mph 83% 0 in 250.00 W/m2
09:30 27.8 °F 23.3 °F 30.16 in NW 5 mph 9 mph 83% 0 in 193.00 W/m2
09:35 28 °F 23.5 °F 30.16 in NW 8 mph 11 mph 83% 0 in 274.00 W/m2
09:40 28.2 °F 23.4 °F 30.16 in NNW 8 mph 13 mph 82% 0 in 288.00 W/m2
09:45 28.4 °F 23.6 °F 30.16 in NW 10 mph 15 mph 82% 0 in 330.00 W/m2
09:50 28.4 °F 23.6 °F 30.16 in NW 5 mph 15 mph 82% 0 in 304.00 W/m2
09:55 28.5 °F 23.7 °F 30.16 in NW 12 mph 13 mph 82% 0 in 322.00 W/m2
10:00 28.6 °F 23.8 °F 30.17 in NNW 10 mph 13 mph 82% 0 in 220.00 W/m2
10:05 28.7 °F 23.9 °F 30.17 in NW 10 mph 13 mph 82% 0.01 in 397.00 W/m2
10:10 28.7 °F 23.6 °F 30.17 in NW 5 mph 19 mph 81% 0.01 in 234.00 W/m2
10:15 28.6 °F 23.2 °F 30.17 in WNW 13 mph 19 mph 80% 0.01 in 285.00 W/m2
10:20 28.5 °F 23.1 °F 30.17 in NW 11 mph 21 mph 80% 0.01 in 232.00 W/m2
10:25 28.5 °F 22.8 °F 30.18 in NW 16 mph 21 mph 79% 0.01 in 255.00 W/m2
10:30 28.5 °F 22.2 °F 30.18 in NW 15 mph 22 mph 77% 0.01 in 468.00 W/m2
10:35 28.6 °F 22.3 °F 30.18 in NNW 11 mph 23 mph 77% 0.01 in 292.00 W/m2
10:40 28.4 °F 22.4 °F 30.18 in WNW 12 mph 23 mph 78% 0.01 in 269.00 W/m2
10:45 28.3 °F 22.3 °F 30.18 in WNW 16 mph 21 mph 78% 0.01 in 304.00 W/m2
10:50 28.3 °F 22 °F 30.18 in NW 21 mph 21 mph 77% 0.01 in 355.00 W/m2
10:55 28.7 °F 21.8 °F 30.18 in WNW 14 mph 22 mph 75% 0.01 in 482.00 W/m2
11:00 28.7 °F 21.5 °F 30.19 in WNW 15 mph 22 mph 74% 0.01 in 401.00 W/m2
11:05 28.6 °F 21.4 °F 30.19 in NW 16 mph 23 mph 74% 0 in 353.00 W/m2
11:10 28.5 °F 21.3 °F 30.19 in NW 17 mph 23 mph 74% 0 in 339.00 W/m2
11:15 28.2 °F 21 °F 30.19 in NW 18 mph 22 mph 74% 0 in 272.00 W/m2
11:20 28.1 °F 21.2 °F 30.19 in WNW 14 mph 22 mph 75% 0 in 336.00 W/m2
11:25 28.2 °F 21 °F 30.19 in NW 15 mph 22 mph 74% 0 in 385.00 W/m2
11:30 28.2 °F 21.3 °F 30.19 in NW 9 mph 22 mph 75% 0 in 404.00 W/m2
11:35 28.5 °F 21.9 °F 30.19 in NW 12 mph 20 mph 76% 0 in 287.00 W/m2
11:40 28.1 °F 21.5 °F 30.19 in NW 9 mph 20 mph 76% 0 in 359.00 W/m2
11:45 28.2 °F 22.2 °F 30.19 in West 10 mph 20 mph 78% 0 in 229.00 W/m2
11:50 27.6 °F 21.6 °F 30.20 in NW 15 mph 22 mph 78% 0 in 325.00 W/m2
11:55 27.7 °F 20.8 °F 30.20 in WNW 15 mph 22 mph 75% 0 in 417.00 W/m2
12:00 27.8 °F 21.2 °F 30.20 in West 12 mph 22 mph 76% 0 in 434.00 W/m2
12:05 27.8 °F 21.2 °F 30.20 in WNW 7 mph 21 mph 76% 0 in 436.00 W/m2
12:10 27.8 °F 20.9 °F 30.20 in WNW 18 mph 22 mph 75% 0 in 441.00 W/m2
12:15 27.6 °F 20.4 °F 30.20 in WNW 13 mph 22 mph 74% 0 in 443.00 W/m2
12:20 27.6 °F 20.1 °F 30.20 in WNW 16 mph 21 mph 73% 0 in 450.00 W/m2
12:25 27.7 °F 19.5 °F 30.20 in WNW 15 mph 21 mph 71% 0 in 454.00 W/m2
12:30 27.8 °F 19.9 °F 30.19 in NW 11 mph 23 mph 72% 0 in 452.00 W/m2
12:35 28 °F 19.8 °F 30.19 in NW 10 mph 23 mph 71% 0 in 459.00 W/m2
12:40 28.1 °F 19.6 °F 30.19 in NW 11 mph 23 mph 70% 0 in 459.00 W/m2
12:45 28 °F 18.1 °F 30.19 in WNW 11 mph 23 mph 66% 0 in 434.00 W/m2
12:50 27.9 °F 17.3 °F 30.19 in NW 17 mph 23 mph 64% 0 in 417.00 W/m2
12:55 27.8 °F 17.6 °F 30.19 in NW 23 mph 24 mph 65% 0 in 397.00 W/m2
13:00 27.8 °F 17.9 °F 30.19 in NW 12 mph 24 mph 66% 0 in 466.00 W/m2
13:05 28.1 °F 18.2 °F 30.19 in NW 12 mph 24 mph 66% 0 in 450.00 W/m2
13:10 28.1 °F 18.5 °F 30.19 in WNW 14 mph 24 mph 67% 0 in 422.00 W/m2
13:15 28.3 °F 18.7 °F 30.19 in NW 12 mph 20 mph 67% 0 in 464.00 W/m2
13:20 28.3 °F 17.3 °F 30.19 in NW 18 mph 22 mph 63% 0 in 446.00 W/m2
13:25 28.1 °F 17.5 °F 30.19 in WNW 17 mph 22 mph 64% 0 in 454.00 W/m2
13:30 28.4 °F 17.8 °F 30.19 in NW 11 mph 22 mph 64% 0 in 436.00 W/m2
13:35 28.5 °F 17.9 °F 30.19 in NW 14 mph 22 mph 64% 0 in 427.00 W/m2
13:40 28.4 °F 17.8 °F 30.19 in WNW 13 mph 20 mph 64% 0 in 418.00 W/m2
13:45 28.5 °F 19.3 °F 30.19 in WNW 12 mph 19 mph 68% 0 in 404.00 W/m2
13:50 28.3 °F 18.7 °F 30.19 in WNW 17 mph 20 mph 67% 0 in 399.00 W/m2
13:55 28.2 °F 18.6 °F 30.19 in WNW 13 mph 21 mph 67% 0 in 390.00 W/m2
14:00 28.3 °F 19.1 °F 30.20 in NW 16 mph 21 mph 68% 0 in 383.00 W/m2
14:05 28.3 °F 17.7 °F 30.19 in WNW 15 mph 23 mph 64% 0 in 378.00 W/m2
14:10 28.1 °F 16.7 °F 30.20 in NW 17 mph 23 mph 62% 0 in 369.00 W/m2
14:15 27.9 °F 16.6 °F 30.20 in NW 17 mph 21 mph 62% 0 in 360.00 W/m2
14:20 28 °F 17.4 °F 30.20 in NW 8 mph 21 mph 64% 0 in 350.00 W/m2
14:25 27.9 °F 16.9 °F 30.20 in WNW 15 mph 18 mph 63% 0 in 343.00 W/m2
14:30 27.9 °F 17.3 °F 30.20 in WNW 13 mph 19 mph 64% 0 in 336.00 W/m2
14:35 28 °F 17.4 °F 30.20 in NW 10 mph 19 mph 64% 0 in 329.00 W/m2
14:40 28 °F 17 °F 30.20 in WNW 9 mph 19 mph 63% 0 in 320.00 W/m2
14:45 28 °F 17 °F 30.20 in West 13 mph 19 mph 63% 0 in 311.00 W/m2
14:50 27.8 °F 16.8 °F 30.20 in WNW 12 mph 19 mph 63% 0 in 301.00 W/m2
14:55 27.9 °F 17.3 °F 30.20 in NW 16 mph 19 mph 64% 0 in 288.00 W/m2
15:00 27.8 °F 16.8 °F 30.21 in NW 10 mph 19 mph 63% 0 in 278.00 W/m2
15:05 27.7 °F 16.4 °F 30.21 in NW 13 mph 19 mph 62% 0 in 264.00 W/m2
15:10 27.8 °F 16.5 °F 30.21 in NW 14 mph 16 mph 62% 0 in 255.00 W/m2
15:15 27.8 °F 16.1 °F 30.21 in WNW 12 mph 17 mph 61% 0 in 241.00 W/m2
15:20 27.7 °F 16 °F 30.21 in NW 9 mph 17 mph 61% 0 in 227.00 W/m2
15:25 27.6 °F 15.9 °F 30.21 in NW 12 mph 18 mph 61% 0 in 211.00 W/m2
15:30 27.6 °F 15.9 °F 30.21 in NW 12 mph 18 mph 61% 0 in 197.00 W/m2
15:35 27.5 °F 15.8 °F 30.21 in NW 11 mph 18 mph 61% 0 in 183.00 W/m2
15:40 27.5 °F 16.2 °F 30.22 in NW 9 mph 18 mph 62% 0 in 167.00 W/m2
15:45 27.5 °F 16.2 °F 30.22 in NW 12 mph 17 mph 62% 0 in 155.00 W/m2
15:50 27.6 °F 15.9 °F 30.22 in WNW 15 mph 20 mph 61% 0 in 141.00 W/m2
15:55 27.4 °F 16.1 °F 30.22 in NW 12 mph 20 mph 62% 0 in 127.00 W/m2
16:00 27.4 °F 16.4 °F 30.22 in WNW 9 mph 20 mph 63% 0 in 113.00 W/m2
16:05 27.4 °F 16.8 °F 30.23 in WNW 7 mph 20 mph 64% 0 in 98.00 W/m2
16:10 27.3 °F 16.4 °F 30.23 in NW 9 mph 13 mph 63% 0 in 86.00 W/m2
16:15 27.2 °F 16.6 °F 30.23 in WNW 7 mph 14 mph 64% 0 in 79.00 W/m2
16:20 27.1 °F 16.5 °F 30.23 in NW 9 mph 14 mph 64% 0 in 69.00 W/m2
16:25 27 °F 16.8 °F 30.23 in WNW 7 mph 14 mph 65% 0 in 53.00 W/m2
16:30 26.8 °F 16.6 °F 30.24 in WNW 7 mph 14 mph 65% 0 in 44.00 W/m2
16:35 26.6 °F 16.4 °F 30.24 in WNW 9 mph 13 mph 65% 0 in 33.00 W/m2
16:40 26.3 °F 16.5 °F 30.24 in WNW 4 mph 13 mph 66% 0 in 28.00 W/m2
16:45 26.2 °F 16.7 °F 30.24 in WNW 7 mph 11 mph 67% 0 in 23.00 W/m2
16:50 25.8 °F 16.3 °F 30.24 in West 8 mph 11 mph 67% 0 in 21.00 W/m2
16:55 25.7 °F 16.3 °F 30.25 in WNW 10 mph 11 mph 67% 0 in 18.00 W/m2
17:00 25.6 °F 16.2 °F 30.25 in WNW 8 mph 11 mph 67% 0 in 14.00 W/m2
17:05 25.3 °F 16.2 °F 30.25 in WNW 10 mph 11 mph 68% 0 in 11.00 W/m2
17:10 25 °F 15.9 °F 30.25 in WNW 8 mph 11 mph 68% 0 in 7.00 W/m2
17:15 24.7 °F 16 °F 30.25 in WNW 6 mph 11 mph 69% 0 in 5.00 W/m2
17:20 24.5 °F 15.8 °F 30.25 in NW 7 mph 11 mph 69% 0 in 0.00 W/m2
17:25 24.3 °F 15.9 °F 30.25 in WNW 7 mph 11 mph 70% 0 in 0.00 W/m2
17:30 24 °F 16 °F 30.25 in WNW 9 mph 12 mph 71% 0 in 0.00 W/m2
17:35 23.9 °F 15.9 °F 30.25 in WNW 8 mph 13 mph 71% 0 in 0.00 W/m2
17:40 23.9 °F 15.9 °F 30.26 in WNW 14 mph 14 mph 71% 0 in 0.00 W/m2
17:45 23.8 °F 15.8 °F 30.26 in WNW 9 mph 14 mph 71% 0 in 0.00 W/m2
17:50 23.8 °F 15.8 °F 30.26 in NW 7 mph 15 mph 71% 0 in 0.00 W/m2
17:55 23.8 °F 15.8 °F 30.26 in WNW 8 mph 15 mph 71% 0 in 0.00 W/m2
18:00 23.6 °F 15.6 °F 30.26 in WNW 8 mph 15 mph 71% 0 in 0.00 W/m2
18:05 23.3 °F 15.6 °F 30.26 in WNW 6 mph 15 mph 72% 0 in 0.00 W/m2
18:10 22.9 °F 15.2 °F 30.26 in WNW 8 mph 15 mph 72% 0 in 0.00 W/m2
18:15 22.8 °F 15.4 °F 30.27 in NW 8 mph 12 mph 73% 0 in 0.00 W/m2
18:20 23 °F 15.6 °F 30.27 in West 8 mph 15 mph 73% 0 in 0.00 W/m2
18:25 23.1 °F 15.4 °F 30.27 in West 9 mph 15 mph 72% 0 in 0.00 W/m2
18:30 23.2 °F 15.5 °F 30.27 in WNW 4 mph 15 mph 72% 0 in 0.00 W/m2
18:35 23 °F 15.3 °F 30.27 in WNW 3 mph 15 mph 72% 0 in 0.00 W/m2
18:40 22.5 °F 14.8 °F 30.27 in WNW 4 mph 12 mph 72% 0 in 0.00 W/m2
18:45 22.3 °F 14.6 °F 30.27 in NW 5 mph 12 mph 72% 0 in 0.00 W/m2
18:50 21.8 °F 14.2 °F 30.27 in NNW 4 mph 10 mph 72% 0 in 0.00 W/m2
18:55 21 °F 13.7 °F 30.27 in NW 5 mph 10 mph 73% 0 in 0.00 W/m2
19:00 20.5 °F 13.5 °F 30.28 in NW 5 mph 8 mph 74% 0 in 0.00 W/m2
19:05 20.2 °F 13.5 °F 30.28 in NNW 5 mph 9 mph 75% 0 in 0.00 W/m2
19:10 20.3 °F 13.6 °F 30.28 in NNW 5 mph 9 mph 75% 0 in 0.00 W/m2
19:15 20.2 °F 13.5 °F 30.28 in NNW 5 mph 9 mph 75% 0 in 0.00 W/m2
19:20 20.1 °F 13.7 °F 30.29 in NW 4 mph 9 mph 76% 0 in 0.00 W/m2
19:25 20.5 °F 14.1 °F 30.29 in NW 3 mph 8 mph 76% 0 in 0.00 W/m2
Bismarck, North Dakota, USA
Compliments of Weather Underground - 4 mb